Time;durP1;ratioP1;P1;durP2;ratioP2;P2;SDS_P1;SDS_P2;PMS_P1;PMS_P2;Temp;Humidity;BMP_temperature;BMP_pressure;BME280_temperature;BME280_humidity;BME280_pressure;Samples;Min_cycle;Max_cycle;Signal;HPM_P1;HPM_P2
2023/08/31 00:01:54;;;;;;;3.80;1.70;;;;;;;20.71;61.52;96233.72;10404020;28;20037;-29
2023/08/31 00:06:56;;;;;;;3.70;1.60;;;;;;;20.71;61.35;96238.81;10401901;28;20029;-29
2023/08/31 00:11:56;;;;;;;2.08;1.30;;;;;;;20.72;61.49;96245.56;10407315;28;20033;-28
2023/08/31 00:16:57;;;;;;;2.20;1.47;;;;;;;20.70;61.29;96232.88;10401543;28;20063;-28
2023/08/31 00:21:58;;;;;;;3.30;1.25;;;;;;;20.72;61.34;96232.84;10407446;28;20284;-28
2023/08/31 00:26:58;;;;;;;2.27;1.53;;;;;;;20.72;61.06;96237.94;10406281;28;20021;-28
2023/08/31 00:31:58;;;;;;;3.92;1.45;;;;;;;20.70;61.09;96232.88;10404780;28;20794;-28
2023/08/31 00:36:59;;;;;;;1.98;1.20;;;;;;;20.69;61.53;96231.19;10403473;28;20640;-28
2023/08/31 00:42:00;;;;;;;4.87;1.57;;;;;;;20.71;61.22;96238.81;10407145;28;20025;-28
2023/08/31 00:47:02;;;;;;;2.60;1.55;;;;;;;20.68;61.24;96236.28;10412388;28;20292;-29
2023/08/31 00:52:03;;;;;;;2.20;1.20;;;;;;;20.70;61.15;96235.41;10412616;28;20056;-28
2023/08/31 00:57:03;;;;;;;2.78;1.35;;;;;;;20.70;61.06;96240.50;10406439;28;20083;-27
2023/08/31 01:02:26;;;;;;;3.07;1.17;;;;;;;20.70;61.35;96240.50;10413671;28;20091;-28
2023/08/31 01:07:38;;;;;;;4.60;1.88;;;;;;;20.54;61.21;96195.84;10408992;28;20514;-29
2023/08/31 01:12:50;;;;;;;4.00;1.35;;;;;;;20.69;61.20;96220.16;10405698;28;20064;-28
2023/08/31 01:17:54;;;;;;;4.63;1.30;;;;;;;20.68;61.10;96219.34;10406127;28;20554;-29
2023/08/31 01:23:09;;;;;;;3.85;1.25;;;;;;;20.62;61.34;96204.16;10408455;28;20025;-28
2023/08/31 01:28:11;;;;;;;2.40;1.30;;;;;;;20.68;61.14;96239.69;10412576;28;20045;-28
2023/08/31 01:33:12;;;;;;;1.52;1.05;;;;;;;20.68;61.25;96238.84;10409461;28;20454;-28
2023/08/31 01:38:18;;;;;;;1.92;1.15;;;;;;;20.66;61.05;96238.88;10412467;28;20083;-28
2023/08/31 01:43:21;;;;;;;1.67;0.95;;;;;;;20.66;61.25;96236.34;10409987;28;20480;-29
2023/08/31 01:48:21;;;;;;;2.47;1.45;;;;;;;20.64;61.12;96238.03;10409618;28;20034;-28
2023/08/31 01:53:22;;;;;;;3.20;1.60;;;;;;;20.65;61.12;96244.81;10409647;28;20479;-28
2023/08/31 01:58:23;;;;;;;2.95;1.10;;;;;;;20.66;61.08;96249.06;10408292;28;20479;-28
2023/08/31 02:03:23;;;;;;;3.13;1.20;;;;;;;20.65;61.16;96249.91;10410252;28;20064;-28
2023/08/31 02:08:23;;;;;;;1.75;1.50;;;;;;;20.66;61.17;96259.25;10407853;28;20030;-29
2023/08/31 02:13:25;;;;;;;2.65;1.15;;;;;;;20.65;60.50;96265.16;10409245;28;20025;-29
2023/08/31 02:18:25;;;;;;;1.33;1.07;;;;;;;20.64;61.26;96271.13;10409142;28;20071;-28
2023/08/31 02:23:26;;;;;;;3.40;1.47;;;;;;;20.66;61.18;96266.88;10407614;28;20108;-28
2023/08/31 02:28:26;;;;;;;2.53;1.10;;;;;;;20.63;61.23;96266.06;10410364;28;20396;-29
2023/08/31 02:33:26;;;;;;;2.90;2.17;;;;;;;20.63;60.99;96261.81;10401089;28;20510;-28
2023/08/31 02:38:27;;;;;;;3.10;1.40;;;;;;;20.64;60.85;96272.84;10410047;28;20061;-28
2023/08/31 02:43:28;;;;;;;1.67;1.20;;;;;;;20.63;61.10;96261.81;10407146;28;20362;-28
2023/08/31 02:48:31;;;;;;;3.28;1.25;;;;;;;20.64;61.02;96271.13;10409548;28;20033;-31
2023/08/31 02:53:31;;;;;;;1.33;1.17;;;;;;;20.65;61.10;96272.78;10405052;28;20152;-28
2023/08/31 02:58:32;;;;;;;1.80;1.10;;;;;;;20.62;61.17;96265.22;10405575;28;20452;-28
2023/08/31 03:03:32;;;;;;;3.00;1.30;;;;;;;20.63;60.88;96263.53;10405573;28;20033;-28
2023/08/31 03:08:33;;;;;;;4.22;1.02;;;;;;;20.63;60.99;96266.06;10407970;28;20738;-29
2023/08/31 03:13:34;;;;;;;1.42;1.00;;;;;;;20.64;60.96;96272.84;10413838;28;20095;-29
2023/08/31 03:18:34;;;;;;;1.50;0.93;;;;;;;20.60;61.02;96272.03;10403541;28;20484;-28
2023/08/31 03:23:35;;;;;;;1.63;1.10;;;;;;;20.63;61.11;96277.06;10408788;28;20045;-29
2023/08/31 03:28:35;;;;;;;1.47;1.13;;;;;;;20.61;60.90;96268.63;10403194;28;20029;-28
2023/08/31 03:33:36;;;;;;;3.03;1.27;;;;;;;20.63;60.89;96271.97;10402548;28;20484;-30
2023/08/31 03:38:40;;;;;;;1.10;1.00;;;;;;;20.63;61.07;96271.97;10405553;28;20296;-28
2023/08/31 03:43:40;;;;;;;2.00;1.10;;;;;;;20.61;60.78;96268.63;10408023;28;20053;-29
2023/08/31 03:48:41;;;;;;;1.33;1.00;;;;;;;20.62;61.14;96288.13;10405819;28;20569;-29
2023/08/31 03:53:41;;;;;;;1.00;0.90;;;;;;;20.62;61.01;96287.28;10403089;28;20306;-29
2023/08/31 03:58:42;;;;;;;1.17;0.83;;;;;;;20.62;60.90;96292.38;10410242;28;20025;-28
2023/08/31 04:03:42;;;;;;;2.63;0.90;;;;;;;20.62;60.65;96289.84;10407924;28;20048;-28
2023/08/31 04:08:42;;;;;;;2.17;0.82;;;;;;;20.64;60.40;96296.56;10405035;28;20025;-29
2023/08/31 04:13:43;;;;;;;1.33;0.90;;;;;;;20.73;60.27;96304.03;10407995;28;20121;-29
2023/08/31 04:18:45;;;;;;;1.20;1.10;;;;;;;20.71;60.21;96310.88;10411249;28;20025;-28
2023/08/31 04:23:45;;;;;;;0.93;0.75;;;;;;;20.76;60.18;96318.44;10410652;28;20092;-28
2023/08/31 04:28:46;;;;;;;0.90;0.80;;;;;;;20.77;60.17;96327.72;10412877;28;20045;-28
2023/08/31 04:33:48;;;;;;;4.80;1.53;;;;;;;20.76;60.06;96333.69;10416952;28;20029;-29
2023/08/31 04:38:51;;;;;;;6.15;1.88;;;;;;;20.69;60.64;96325.31;10408947;28;20334;-29
2023/08/31 04:43:51;;;;;;;3.15;1.60;;;;;;;20.69;60.57;96342.28;10412679;28;20510;-29
2023/08/31 04:48:52;;;;;;;1.97;1.47;;;;;;;20.59;60.47;96336.50;10412561;28;20037;-28
2023/08/31 04:53:52;;;;;;;3.00;1.40;;;;;;;20.62;60.23;96326.25;10414021;28;20758;-28
2023/08/31 04:58:53;;;;;;;2.50;1.07;;;;;;;20.60;60.28;96330.53;10406472;28;20033;-28
2023/08/31 05:03:53;;;;;;;3.67;1.13;;;;;;;20.57;60.38;96343.28;10410096;28;20381;-27
2023/08/31 05:08:53;;;;;;;4.20;1.20;;;;;;;20.58;60.02;96337.38;10413917;28;20021;-29
2023/08/31 05:13:54;;;;;;;1.50;1.00;;;;;;;20.55;60.17;96350.09;10411254;28;20357;-28
2023/08/31 05:18:54;;;;;;;3.20;1.10;;;;;;;20.52;60.00;96365.41;10412186;28;20033;-28
2023/08/31 05:23:54;;;;;;;2.07;1.27;;;;;;;20.45;60.20;96373.97;10411660;28;20040;-28
2023/08/31 05:28:55;;;;;;;1.63;1.00;;;;;;;20.44;60.35;96381.63;10406739;28;20030;-29
2023/08/31 05:33:55;;;;;;;3.47;1.50;;;;;;;20.45;60.08;96379.06;10411357;28;20031;-29
2023/08/31 05:38:56;;;;;;;2.60;1.40;;;;;;;20.46;59.97;96390.91;10406431;28;20037;-29
2023/08/31 05:43:56;;;;;;;1.70;1.00;;;;;;;20.45;60.13;96396.06;10412148;28;20465;-28
2023/08/31 05:48:56;;;;;;;6.37;1.37;;;;;;;20.47;59.91;96400.22;10410416;28;20029;-28
2023/08/31 05:53:56;;;;;;;1.43;0.90;;;;;;;20.42;59.94;96407.97;10411876;28;20495;-28
2023/08/31 05:58:57;;;;;;;3.43;1.13;;;;;;;20.40;59.93;96411.34;10406126;28;20108;-29
2023/08/31 06:03:57;;;;;;;2.10;1.23;;;;;;;20.38;60.09;96417.31;10407817;28;20632;-29
2023/08/31 06:08:58;;;;;;;1.35;1.00;;;;;;;20.40;60.18;96426.59;10411151;28;20304;-29
2023/08/31 06:13:58;;;;;;;3.03;1.10;;;;;;;20.38;60.24;96434.25;10407462;28;20029;-29
2023/08/31 06:18:59;;;;;;;1.45;1.10;;;;;;;20.34;60.16;96425.00;10411175;28;20048;-30
2023/08/31 06:23:59;;;;;;;1.80;1.30;;;;;;;20.37;60.17;96419.88;10406145;28;20375;-28
2023/08/31 06:28:59;;;;;;;1.15;0.95;;;;;;;20.39;60.14;96439.34;10409273;28;20108;-29
2023/08/31 06:34:00;;;;;;;4.00;1.20;;;;;;;20.43;60.02;96429.13;10403280;28;20034;-28
2023/08/31 06:39:00;;;;;;;3.20;1.20;;;;;;;20.38;60.07;96429.19;10409046;28;20025;-28
2023/08/31 06:44:02;;;;;;;7.88;1.30;;;;;;;20.41;60.26;96427.44;10404982;28;20033;-28
2023/08/31 06:49:04;;;;;;;3.20;1.25;;;;;;;20.34;60.40;96438.53;10409486;28;20144;-30
2023/08/31 06:54:06;;;;;;;3.22;1.05;;;;;;;20.30;60.43;96448.75;10408103;28;20030;-28
2023/08/31 06:59:06;;;;;;;2.63;1.50;;;;;;;20.36;60.35;96453.78;10414444;28;20039;-28
2023/08/31 07:04:07;;;;;;;5.97;1.60;;;;;;;20.39;60.23;96463.06;10408614;28;20527;-28
2023/08/31 07:09:08;;;;;;;8.57;1.30;;;;;;;20.40;60.36;96458.81;10401704;28;20300;-29
2023/08/31 07:14:08;;;;;;;5.30;1.27;;;;;;;20.36;60.05;96474.13;10401044;28;20120;-30
2023/08/31 07:19:09;;;;;;;4.67;1.40;;;;;;;20.34;59.90;96465.69;10403165;28;20029;-28
2023/08/31 07:24:09;;;;;;;3.65;1.40;;;;;;;20.32;59.81;96472.47;10408294;28;20033;-29
2023/08/31 07:29:10;;;;;;;2.43;1.20;;;;;;;20.31;59.98;96460.63;10403349;28;20038;-28
2023/08/31 07:34:10;;;;;;;3.90;1.33;;;;;;;20.28;60.06;96461.47;10399260;28;20460;-28
2023/08/31 07:39:10;;;;;;;6.17;1.30;;;;;;;20.28;60.04;96484.38;10407854;28;20033;-28
2023/08/31 07:44:11;;;;;;;2.63;1.40;;;;;;;20.18;60.10;96479.41;10404907;28;20132;-29
2023/08/31 07:49:11;;;;;;;5.47;1.73;;;;;;;20.19;60.18;96496.34;10408060;28;20045;-28
2023/08/31 07:54:19;;;;;;;3.17;1.40;;;;;;;20.15;59.85;96490.44;10410310;28;20037;-28
2023/08/31 07:59:19;;;;;;;4.22;1.55;;;;;;;20.17;59.72;96487.91;10415699;28;20038;-29
2023/08/31 08:04:20;;;;;;;6.07;1.60;;;;;;;20.18;59.09;96499.75;10409428;28;20512;-28
2023/08/31 08:09:20;;;;;;;3.07;1.83;;;;;;;20.27;58.83;96504.75;10408705;28;20500;-28
2023/08/31 08:14:21;;;;;;;3.38;1.90;;;;;;;20.25;58.57;96509.00;10415863;28;20045;-29
2023/08/31 08:19:23;;;;;;;4.82;1.80;;;;;;;20.32;58.24;96502.97;10413862;28;20021;-29
2023/08/31 08:24:23;;;;;;;3.83;1.63;;;;;;;20.31;58.33;96517.41;10414895;28;20049;-29
2023/08/31 08:29:23;;;;;;;2.70;1.40;;;;;;;20.33;58.33;96504.69;10411502;28;20041;-28
2023/08/31 08:34:26;;;;;;;4.10;1.53;;;;;;;20.30;57.60;96514.88;10409161;28;20121;-28
2023/08/31 08:39:27;;;;;;;2.80;1.42;;;;;;;20.37;57.99;96519.91;10414267;28;20060;-29
2023/08/31 08:44:32;;;;;;;2.20;1.20;;;;;;;20.43;58.03;96520.66;10404640;28;20449;-29
2023/08/31 08:49:33;;;;;;;3.38;1.40;;;;;;;20.47;57.87;96526.56;10414006;28;20041;-29
2023/08/31 08:54:34;;;;;;;9.52;1.55;;;;;;;20.49;57.41;96533.31;10409850;28;20151;-29
2023/08/31 08:59:35;;;;;;;3.20;1.77;;;;;;;20.52;57.34;96534.97;10414124;28;20041;-29
2023/08/31 09:04:35;;;;;;;4.33;2.77;;;;;;;20.52;57.40;96540.06;10409240;28;20462;-28
2023/08/31 09:09:49;;;;;;;4.38;1.92;;;;;;;20.49;57.72;96540.94;10409274;28;20038;-28
2023/08/31 09:15:00;;;;;;;4.82;1.55;;;;;;;20.42;57.72;96531.69;10410094;28;20065;-28
2023/08/31 09:20:03;;;;;;;3.22;1.65;;;;;;;20.48;57.74;96544.31;10409473;28;20025;-28
2023/08/31 09:25:04;;;;;;;2.80;1.30;;;;;;;20.47;57.77;96535.00;10413396;28;20049;-28
2023/08/31 09:30:06;;;;;;;2.65;1.45;;;;;;;20.47;57.86;96540.09;10408635;28;20046;-28
2023/08/31 09:35:10;;;;;;;3.72;1.55;;;;;;;20.49;57.84;96546.03;10410871;28;20030;-29
2023/08/31 09:40:14;;;;;;;2.25;1.10;;;;;;;20.49;57.86;96548.59;10412077;28;20041;-29
2023/08/31 09:45:17;;;;;;;4.10;1.17;;;;;;;20.48;57.51;96541.78;10398352;28;20049;-29
2023/08/31 09:50:18;;;;;;;1.58;1.15;;;;;;;20.46;57.66;96551.13;10411878;28;20450;-28
2023/08/31 09:55:20;;;;;;;3.08;0.90;;;;;;;20.49;57.38;96560.44;10409616;28;20120;-28
2023/08/31 10:00:21;;;;;;;2.15;1.15;;;;;;;20.48;57.51;96551.94;10411863;28;20033;-29
2023/08/31 10:05:22;;;;;;;2.15;1.35;;;;;;;20.48;57.44;96563.84;10404774;28;20041;-28
2023/08/31 10:10:23;;;;;;;2.60;1.00;;;;;;;20.47;56.85;96562.16;10411235;28;20090;-28
2023/08/31 10:15:30;;;;;;;2.33;1.13;;;;;;;20.47;57.10;96565.53;10407091;28;20499;-28
2023/08/31 10:20:31;;;;;;;2.78;1.30;;;;;;;20.42;57.10;96540.19;10411167;28;20039;-27
2023/08/31 10:25:50;;;;;;;2.28;1.23;;;;;;;20.47;56.97;96550.28;10408384;28;20041;-29
2023/08/31 10:31:05;;;;;;;2.10;1.20;;;;;;;20.48;56.34;96549.41;10410801;28;20117;-30
2023/08/31 10:36:19;;;;;;;1.88;1.10;;;;;;;20.48;56.94;96551.94;10408560;28;20037;-28
2023/08/31 10:41:20;;;;;;;1.60;1.17;;;;;;;20.48;57.06;96546.03;10396460;28;20444;-28
2023/08/31 10:46:28;;;;;;;1.83;1.17;;;;;;;20.43;56.87;96538.47;10410039;28;20033;-28
2023/08/31 10:51:30;;;;;;;3.22;1.92;;;;;;;20.47;57.29;96550.28;10402917;28;20045;-29
2023/08/31 10:56:31;;;;;;;2.17;1.20;;;;;;;20.46;56.54;96543.50;10408509;28;20045;-29
2023/08/31 11:01:54;;;;;;;2.15;1.02;;;;;;;20.49;56.92;96538.41;10409274;28;20041;-28
2023/08/31 11:07:17;;;;;;;3.35;1.33;;;;;;;20.49;56.98;96543.50;10406338;28;20033;-29
2023/08/31 11:12:17;;;;;;;1.88;1.00;;;;;;;20.48;57.21;96549.41;10408571;28;20033;-28
2023/08/31 11:17:17;;;;;;;1.10;1.00;;;;;;;20.49;57.07;96551.13;10407727;28;20044;-29
2023/08/31 11:22:18;;;;;;;2.10;1.10;;;;;;;20.46;56.90;96533.34;10408755;28;20041;-29
2023/08/31 11:27:20;;;;;;;2.67;1.13;;;;;;;20.48;56.96;96546.88;10400950;28;20042;-29
2023/08/31 11:32:24;;;;;;;2.13;1.25;;;;;;;20.49;57.03;96538.41;10401362;28;20029;-29
2023/08/31 11:37:26;;;;;;;2.30;1.20;;;;;;;20.49;56.72;96546.03;10407260;28;20279;-28
2023/08/31 11:42:27;;;;;;;1.77;1.33;;;;;;;20.48;56.01;96535.88;10407256;28;20060;-29
2023/08/31 11:47:27;;;;;;;3.23;1.30;;;;;;;20.50;56.42;96541.78;10402488;28;20064;-29
2023/08/31 11:52:28;;;;;;;4.32;1.20;;;;;;;20.49;56.77;96540.94;10407511;28;20590;-28
2023/08/31 11:57:28;;;;;;;2.08;1.20;;;;;;;20.50;56.97;96535.00;10405836;28;20373;-29
2023/08/31 12:02:28;;;;;;;2.70;1.08;;;;;;;20.43;55.94;96530.84;10403820;28;20396;-28
2023/08/31 12:07:29;;;;;;;4.17;1.40;;;;;;;20.50;55.96;96537.53;10407417;28;20526;-28
2023/08/31 12:12:36;;;;;;;34.93;3.30;;;;;;;20.49;55.96;96542.63;10404035;28;20048;-29
2023/08/31 12:17:39;;;;;;;10.68;2.05;;;;;;;20.50;55.79;96549.41;10407226;28;20500;-28
2023/08/31 12:22:39;;;;;;;11.80;1.80;;;;;;;20.51;55.62;96541.75;10402612;28;20029;-29
2023/08/31 12:27:39;;;;;;;12.10;3.27;;;;;;;20.53;55.54;96534.97;10407318;28;20741;-28
2023/08/31 12:32:40;;;;;;;4.60;1.53;;;;;;;20.51;55.10;96535.81;10404927;28;20034;-29
2023/08/31 12:37:41;;;;;;;7.18;1.50;;;;;;;20.53;55.05;96534.97;10409717;28;20060;-28
2023/08/31 12:42:42;;;;;;;5.73;1.40;;;;;;;20.53;55.12;96519.69;10408955;28;20771;-28
2023/08/31 12:47:42;;;;;;;5.73;1.83;;;;;;;20.63;55.42;96526.34;10412639;28;20037;-28
2023/08/31 12:52:45;;;;;;;6.57;1.77;;;;;;;20.65;55.07;96517.00;10414091;28;20279;-28
2023/08/31 12:57:46;;;;;;;3.70;1.70;;;;;;;20.68;54.82;96519.53;10408179;28;20479;-29
2023/08/31 13:02:46;;;;;;;6.00;1.50;;;;;;;20.68;54.77;96514.44;10413488;28;20037;-28
2023/08/31 13:07:47;;;;;;;4.22;1.67;;;;;;;20.70;54.68;96517.81;10408486;28;20046;-28
2023/08/31 13:12:47;;;;;;;10.17;1.57;;;;;;;20.61;55.26;96517.06;10412411;28;20435;-28
2023/08/31 13:17:48;;;;;;;8.33;1.70;;;;;;;20.68;55.86;96514.44;10411728;28;20379;-28
2023/08/31 13:22:48;;;;;;;9.23;2.33;;;;;;;20.71;55.67;96524.56;10410768;28;20068;-28
2023/08/31 13:27:48;;;;;;;7.53;2.83;;;;;;;20.70;54.97;96520.34;10413105;28;20294;-28
2023/08/31 13:32:49;;;;;;;6.70;1.53;;;;;;;20.70;54.96;96522.88;10406149;28;20030;-28
2023/08/31 13:37:49;;;;;;;5.43;2.23;;;;;;;20.70;54.96;96527.97;10402467;28;20021;-29
2023/08/31 13:43:01;;;;;;;6.13;2.97;;;;;;;20.72;54.47;96531.34;10411081;28;20288;-28
2023/08/31 13:48:02;;;;;;;6.32;2.78;;;;;;;20.69;54.54;96521.22;10405471;28;20035;-29
2023/08/31 13:53:03;;;;;;;4.90;2.35;;;;;;;20.68;54.86;96513.59;10412114;28;20033;-28
2023/08/31 13:58:06;;;;;;;4.40;2.05;;;;;;;20.67;54.58;96512.75;10402897;28;20033;-28
2023/08/31 14:03:06;;;;;;;5.53;2.00;;;;;;;20.68;54.95;96511.91;10410617;28;20042;-28
2023/08/31 14:08:07;;;;;;;3.47;1.93;;;;;;;20.68;54.77;96514.44;10407056;28;20515;-28
2023/08/31 14:13:07;;;;;;;2.40;1.57;;;;;;;20.67;54.89;96507.66;10410627;28;20033;-28
2023/08/31 14:18:07;;;;;;;2.53;1.63;;;;;;;20.65;54.61;96499.19;10407536;28;20033;-28
2023/08/31 14:23:08;;;;;;;5.60;1.70;;;;;;;20.64;54.88;96504.31;10408769;28;20034;-29
2023/08/31 14:28:08;;;;;;;3.35;1.80;;;;;;;20.61;55.70;96492.47;10409090;28;20033;-29
2023/08/31 14:33:09;;;;;;;7.03;1.93;;;;;;;20.57;56.59;96498.44;10395996;28;20034;-29
2023/08/31 14:38:11;;;;;;;6.13;1.73;;;;;;;20.69;56.80;96493.22;10405302;28;20114;-29
2023/08/31 14:43:11;;;;;;;5.65;1.65;;;;;;;20.71;57.00;96494.03;10407185;28;20049;-28
2023/08/31 14:48:12;;;;;;;2.97;1.60;;;;;;;20.68;56.89;96499.16;10410868;28;20465;-28
2023/08/31 14:53:12;;;;;;;12.13;1.77;;;;;;;20.55;55.52;96500.16;10399436;28;20052;-28
2023/08/31 14:58:12;;;;;;;6.20;1.60;;;;;;;20.57;54.40;96500.97;10409333;28;20029;-28
2023/08/31 15:03:13;;;;;;;2.63;1.50;;;;;;;20.57;53.31;96506.06;10405173;28;20040;-28
2023/08/31 15:08:13;;;;;;;4.63;1.70;;;;;;;20.60;52.59;96511.13;10397890;28;20038;-29
2023/08/31 15:13:13;;;;;;;10.90;2.27;;;;;;;20.73;52.37;96492.31;10406129;28;20302;-29
2023/08/31 15:18:14;;;;;;;16.73;3.83;;;;;;;20.82;52.26;96507.47;10410463;28;20037;-29
2023/08/31 15:23:14;;;;;;;6.90;1.90;;;;;;;20.82;51.64;96502.38;10404652;28;20095;-29
2023/08/31 15:28:15;;;;;;;4.03;2.33;;;;;;;20.88;52.36;96507.41;10399900;28;20045;-28
2023/08/31 15:33:15;;;;;;;7.97;1.80;;;;;;;20.89;51.07;96509.09;10400508;28;20384;-28
2023/08/31 15:38:16;;;;;;;5.80;2.07;;;;;;;20.85;50.71;96522.72;10407982;28;20395;-28
2023/08/31 15:43:17;;;;;;;4.75;2.17;;;;;;;20.89;50.56;96521.81;10399749;28;20559;-28
2023/08/31 15:48:17;;;;;;;3.75;2.00;;;;;;;20.92;49.73;96504.00;10405655;28;20492;-30
2023/08/31 15:53:18;;;;;;;6.87;2.20;;;;;;;20.74;49.00;96509.28;10405908;28;20033;-28
2023/08/31 15:58:18;;;;;;;5.37;1.97;;;;;;;20.83;48.76;96504.06;10406729;28;20026;-27
2023/08/31 16:03:18;;;;;;;6.53;2.07;;;;;;;20.74;48.26;96509.28;10405954;28;20467;-28
2023/08/31 16:08:19;;;;;;;8.67;2.00;;;;;;;20.86;50.55;96519.34;10402004;28;20518;-28
2023/08/31 16:13:19;;;;;;;6.00;1.80;;;;;;;20.90;48.82;96523.50;10410131;28;20030;-28
2023/08/31 16:18:19;;;;;;;6.40;2.60;;;;;;;21.04;50.80;96529.28;10410478;28;20030;-29
2023/08/31 16:23:20;;;;;;;9.10;1.97;;;;;;;21.04;52.49;96531.81;10398812;28;20059;-28
2023/08/31 16:28:20;;;;;;;29.77;5.40;;;;;;;21.00;52.87;96527.66;10407282;28;20040;-27
2023/08/31 16:33:20;;;;;;;20.63;4.77;;;;;;;21.00;54.05;96519.16;10411842;28;20291;-28
2023/08/31 16:38:21;;;;;;;18.87;4.30;;;;;;;20.96;54.13;96520.06;10416002;28;20281;-28
2023/08/31 16:43:21;;;;;;;9.10;3.50;;;;;;;20.94;54.27;96522.63;10411334;28;20033;-28
2023/08/31 16:48:24;;;;;;;12.70;2.47;;;;;;;20.92;54.54;96520.94;10414671;28;20061;-28
2023/08/31 16:53:24;;;;;;;8.25;2.55;;;;;;;20.88;54.45;96512.50;10410238;28;20465;-28
2023/08/31 16:58:25;;;;;;;9.67;2.53;;;;;;;20.90;55.12;96502.31;10417671;28;20036;-29
2023/08/31 17:03:25;;;;;;;4.55;1.98;;;;;;;20.88;54.64;96512.50;10408962;28;20048;-28
2023/08/31 17:08:26;;;;;;;7.40;2.10;;;;;;;20.86;55.20;96498.97;10413535;28;20484;-28
2023/08/31 17:13:26;;;;;;;10.07;1.88;;;;;;;20.85;55.29;96507.44;10409590;28;20349;-28
2023/08/31 17:18:26;;;;;;;9.00;1.93;;;;;;;20.79;55.87;96486.31;10402064;28;20037;-30
2023/08/31 17:23:27;;;;;;;20.80;3.17;;;;;;;20.90;55.73;96500.59;10402104;28;20053;-29
2023/08/31 17:28:27;;;;;;;7.27;2.10;;;;;;;20.90;55.79;96500.59;10404833;28;20095;-28
2023/08/31 17:33:29;;;;;;;9.20;2.45;;;;;;;20.91;56.45;96502.31;10400044;28;20033;-28
2023/08/31 17:38:29;;;;;;;7.55;2.25;;;;;;;20.79;56.25;96474.44;10406724;28;20068;-28
2023/08/31 17:43:29;;;;;;;17.90;2.47;;;;;;;20.87;56.02;96485.38;10412017;28;20514;-28
2023/08/31 17:48:35;;;;;;;7.57;2.50;;;;;;;20.88;55.98;96491.31;10401539;28;20076;-28
2023/08/31 17:53:35;;;;;;;9.05;2.17;;;;;;;20.87;55.95;96499.84;10403224;28;20072;-30
2023/08/31 17:58:36;;;;;;;7.85;1.85;;;;;;;20.84;55.91;96503.22;10412061;28;20068;-30
2023/08/31 18:03:36;;;;;;;5.43;1.70;;;;;;;20.85;56.18;96502.34;10405490;28;20113;-29
2023/08/31 18:08:36;;;;;;;7.43;1.77;;;;;;;20.83;56.13;96509.16;10411132;28;20511;-29
2023/08/31 18:13:37;;;;;;;6.70;2.10;;;;;;;20.78;56.25;96499.88;10407566;28;20037;-29
2023/08/31 18:18:38;;;;;;;22.80;2.78;;;;;;;20.80;56.48;96498.19;10410598;28;20288;-29
2023/08/31 18:23:40;;;;;;;3.63;1.80;;;;;;;20.84;56.45;96505.75;10410286;28;20053;-30
2023/08/31 18:28:40;;;;;;;7.63;2.28;;;;;;;20.84;56.08;96497.28;10408833;28;20079;-28
2023/08/31 18:33:41;;;;;;;6.50;1.60;;;;;;;20.80;57.15;96509.19;10409703;28;20082;-29
2023/08/31 18:38:41;;;;;;;6.40;1.90;;;;;;;20.77;57.08;96516.88;10409885;28;20044;-29
2023/08/31 18:43:45;;;;;;;5.23;1.53;;;;;;;20.73;57.63;96507.56;10410530;28;20034;-28
2023/08/31 18:48:45;;;;;;;4.07;2.30;;;;;;;20.45;56.82;96529.09;10401863;28;20033;-28
2023/08/31 18:53:45;;;;;;;4.50;1.37;;;;;;;20.33;56.09;96525.84;10418782;28;20056;-28
2023/08/31 18:58:47;;;;;;;4.43;1.70;;;;;;;20.21;56.22;96527.69;10411418;28;20045;-28
2023/08/31 19:03:48;;;;;;;4.57;1.40;;;;;;;20.13;56.06;96532.00;10403247;28;20045;-28
2023/08/31 19:08:49;;;;;;;3.88;1.83;;;;;;;20.16;56.02;96537.03;10407675;28;20041;-28
2023/08/31 19:13:51;;;;;;;5.32;2.05;;;;;;;20.09;56.60;96550.69;10412248;28;20085;-28
2023/08/31 19:18:53;;;;;;;11.35;2.10;;;;;;;20.07;56.56;96552.38;10399113;28;20518;-29
2023/08/31 19:23:53;;;;;;;3.78;1.58;;;;;;;20.10;58.11;96557.44;10396609;28;20037;-29
2023/08/31 19:28:54;;;;;;;2.97;2.00;;;;;;;20.03;56.30;96550.69;10400379;28;20045;-28
2023/08/31 19:33:54;;;;;;;2.60;1.70;;;;;;;20.04;56.49;96557.47;10403971;28;20280;-28
2023/08/31 19:38:55;;;;;;;3.43;2.40;;;;;;;20.01;56.53;96558.31;10400680;28;20460;-28
2023/08/31 19:43:55;;;;;;;5.23;1.50;;;;;;;20.03;56.14;96571.03;10404155;28;20284;-28
2023/08/31 19:48:55;;;;;;;6.77;2.17;;;;;;;19.98;56.64;96567.66;10396259;28;20033;-28
2023/08/31 19:53:56;;;;;;;2.43;1.73;;;;;;;19.95;56.82;96570.25;10402062;28;20183;-28
2023/08/31 19:58:59;;;;;;;4.47;2.17;;;;;;;19.97;56.70;96571.06;10403480;28;20393;-31
2023/08/31 20:03:59;;;;;;;3.90;1.92;;;;;;;19.95;56.93;96583.81;10396979;28;20464;-29
2023/08/31 20:09:00;;;;;;;2.75;1.70;;;;;;;19.97;57.17;96581.22;10396605;28;20102;-29
2023/08/31 20:14:04;;;;;;;4.30;1.73;;;;;;;20.12;56.74;96579.47;10399390;28;20048;-30
2023/08/31 20:19:04;;;;;;;3.83;1.70;;;;;;;20.02;56.26;96582.03;10396799;28;20029;-30
2023/08/31 20:24:05;;;;;;;3.77;1.53;;;;;;;19.91;57.01;96592.28;10399920;28;20029;-28
2023/08/31 20:29:05;;;;;;;3.33;1.92;;;;;;;20.04;56.81;96593.03;10396097;28;20041;-27
2023/08/31 20:34:05;;;;;;;5.13;2.63;;;;;;;20.23;56.43;96597.13;10399468;28;20034;-29
2023/08/31 20:39:09;;;;;;;3.83;1.67;;;;;;;20.31;56.68;96593.69;10384961;28;20447;-28
2023/08/31 20:44:09;;;;;;;5.32;1.88;;;;;;;20.34;56.94;96592.81;10397604;28;20033;-29
2023/08/31 20:49:10;;;;;;;4.30;1.90;;;;;;;20.40;57.07;96598.69;10389556;28;20512;-28
2023/08/31 20:54:10;;;;;;;3.23;1.90;;;;;;;20.39;57.14;96607.16;10337505;28;20103;-28
2023/08/31 20:59:11;;;;;;;3.70;1.73;;;;;;;20.36;57.16;96603.81;10381756;28;20295;-28
2023/08/31 21:04:11;;;;;;;6.47;1.87;;;;;;;20.35;57.30;96609.75;10406019;28;20033;-28
2023/08/31 21:09:12;;;;;;;2.50;1.40;;;;;;;20.36;57.07;96601.25;10412286;28;20785;-29
2023/08/31 21:14:12;;;;;;;4.03;2.10;;;;;;;20.34;57.18;96597.91;10400238;28;20462;-28
2023/08/31 21:19:12;;;;;;;2.80;1.43;;;;;;;20.37;57.15;96603.81;10413589;28;20472;-28
2023/08/31 21:24:13;;;;;;;2.23;1.40;;;;;;;20.38;57.38;96604.63;10410615;28;20421;-28
2023/08/31 21:29:13;;;;;;;2.80;1.80;;;;;;;20.33;57.10;96597.03;10411421;28;20560;-28
2023/08/31 21:34:13;;;;;;;2.47;1.30;;;;;;;20.34;57.56;96600.44;10421057;28;20033;-29
2023/08/31 21:39:14;;;;;;;2.70;1.63;;;;;;;20.36;57.45;96601.25;10406055;28;20653;-28
2023/08/31 21:44:14;;;;;;;2.67;1.55;;;;;;;20.29;57.72;96607.25;10410269;28;20395;-28
2023/08/31 21:49:15;;;;;;;3.23;1.57;;;;;;;20.33;57.55;96614.00;10409608;28;20029;-29
2023/08/31 21:54:15;;;;;;;3.03;1.87;;;;;;;20.33;57.72;96606.38;10413009;28;20087;-28
2023/08/31 21:59:15;;;;;;;2.87;1.37;;;;;;;20.30;58.10;96612.34;10409797;28;20032;-28
2023/08/31 22:04:16;;;;;;;5.00;1.77;;;;;;;20.29;58.00;96608.13;10409131;28;20037;-28
2023/08/31 22:09:19;;;;;;;1.77;1.10;;;;;;;20.28;58.08;96597.94;10410616;28;20041;-28
2023/08/31 22:14:20;;;;;;;2.63;1.70;;;;;;;20.25;58.19;96598.81;10407171;28;20863;-28
2023/08/31 22:19:20;;;;;;;3.33;1.63;;;;;;;20.23;58.18;96592.91;10411295;28;20034;-29
2023/08/31 22:24:21;;;;;;;2.42;1.23;;;;;;;20.24;57.88;96598.81;10402522;28;20075;-28
2023/08/31 22:29:21;;;;;;;3.58;1.60;;;;;;;20.13;58.83;96587.91;10410558;28;20036;-29
2023/08/31 22:34:23;;;;;;;3.58;1.90;;;;;;;20.11;58.94;96592.16;10401979;28;20392;-30
2023/08/31 22:39:23;;;;;;;3.53;1.58;;;;;;;20.00;59.25;96576.97;10408905;28;20040;-29
2023/08/31 22:44:26;;;;;;;4.60;1.67;;;;;;;20.01;59.48;96582.91;10410230;28;20044;-29
2023/08/31 22:49:29;;;;;;;3.80;1.48;;;;;;;20.01;59.04;96595.63;10405448;28;20029;-28
2023/08/31 22:54:29;;;;;;;3.17;1.48;;;;;;;20.11;58.81;96587.09;10404856;28;20121;-28
2023/08/31 22:59:29;;;;;;;3.70;1.50;;;;;;;20.17;58.53;96584.50;10412424;28;20588;-27
2023/08/31 23:04:30;;;;;;;2.03;1.40;;;;;;;20.10;58.70;96587.94;10400803;28;20025;-27
2023/08/31 23:09:30;;;;;;;4.07;1.40;;;;;;;20.06;58.99;96586.25;10409530;28;20029;-27
2023/08/31 23:14:31;;;;;;;3.17;1.50;;;;;;;20.01;59.02;96588.00;10401696;28;20037;-28
2023/08/31 23:19:31;;;;;;;7.97;1.60;;;;;;;20.00;59.17;96587.13;10409183;28;20025;-28